Kezdőlap
METAR-TAF:

METAR-TAF

Repülőterek :

Radom-Sadków

Radom, Lengyelország

földrajzi szélesség: 51-23-21N, földrajzi hosszúság: 21-12-49E, magasság: 186 m

Jelenlegi meteorológiai megfigyelések

A jelentés 13 órával és 22 perccel ezelõtt készült, 15:00 UTC
Nyugat-délnyugati szél 4 kt, dél-délnyugati és nyugati között változik
Hőmérséklet -1°C
Páratartalom 80%
Légköri nyomás 1021 hPa
Látótávolság 10 km, vagy több
Szakadozott felhőzet 2600 lábon

METAR: EPRA 191500Z 24004KT 210V270 9999 BKN026 M01/M04 Q1021

Idő: 05:22 (04:22 UTC)

Előrejelzés

A jelentés 13 órával és 52 perccel ezelõtt készült, 14:30 UTC
Az előrejelzés 19-én 15 óra UTC és 19-én 24 óra UTC között érvényes
Nyugat-délnyugati szél 6 kt
Látótávolság 10 km, vagy több
Szakadozott felhőzet 2000 lábon

TAF: EPRA 191430Z 1915/1924 24006KT 9999 BKN020

Meteorológiai megfigyelések és előrejelzések több, mint 4000 repülőtéren (METAR és TAF jelentéseket).

A térképen piros és sárga pontok jelzik az elérhető meteorológiai állomásokat.

Mozgassa az egeret a pont fölött, hogy megjelenjen az állomás neve.

Azután kattintson az időjárási megfigyelések és előrejelzések megtekintéséhez.

A térkép megváltoztatása: kattintson a fekete keresztel jelölt zöld gombra ráközelítéshez, a vonallal jelölt zöld gombra távolításhoz, vagy a zöld nyilakra a szomszédos térképek eléréséhez.


METAR-TAF: